Latest Coastal Weather Observations for Brisbane Airport

IDQ60701

Issued at 2:15 am EST Monday 22 September 2014 (issued every 10 minutes, with the page automatically refreshed every 10 minutes)

About coastal observations | Map of coastal stations | Coastal observations for QLD | Marine services | Other Formats
Station Details ID: 040842 Name: BRISBANE AERO Lat: -27.39 Lon: 153.13 Height: 4.51 m
Data from the previous 72 hours. | See also: Recent months at Brisbane Airport
Date/Time
EST
Temp

°C
Wind Pressure Rain
since 9am
mm
Weather Cloud Vis
km
Sea
Height
m
Swell
Dir
 
Speed
knots
Gust
knots
hPa Trend Height
m
Period
s
Dir
22/02:00am 14.7 S 6 9 1026.1 - 1.2 - Mostly clear 10 - - - -
22/01:30am 15.2 S 6 8 1026.3 - 1.2 - Mostly clear 10 - - - -
22/01:00am 15.1 SSW 6 9 1026.7 - 1.2 - Mostly clear 10 - - - -
22/12:30am 15.2 S 6 8 1026.7 - 1.2 - Mostly clear 10 - - - -
22/12:00am 15.1 SSW 6 7 1026.9 F 1.2 Distant precip. Cloudy 25 - - - -
 
Date/Time
EST
Temp

°C
Wind Pressure Rain
since 9am
mm
Weather Cloud Vis
km
Sea
Height
m
Swell
Dir
 
Speed
knots
Gust
knots
hPa Trend Height
m
Period
s
Dir
21/11:30pm 15.3 S 7 9 1027.1 - 1.2 - Mostly clear 10 - - - -
21/11:00pm 15.6 S 6 8 1027.3 - 1.2 Showers Mostly clear 10 - - - -
21/10:30pm 15.2 S 6 9 1027.6 - 1.0 Showers Mostly clear 8 - - - -
21/10:16pm 15.5 SSE 6 8 1027.7 - 0.2 Showers Mostly clear 6 - - - -
21/10:00pm 16.0 SSE 6 8 1027.7 - 0.0 Showers Mostly clear 10 - - - -
21/09:30pm 16.2 SE 4 6 1027.7 - 0.0 Showers Mostly clear 10 - - - -
21/09:00pm 16.6 SE 7 10 1027.4 R 0.0 Showers Mostly cloudy 18 - - - -
21/08:30pm 16.8 SE 8 12 1027.4 - 0.0 Showers Mostly clear 10 - - - -
21/08:00pm 17.2 SE 11 16 1027.4 - 0.0 Showers Mostly clear 10 - - - -
21/07:30pm 17.3 SE 9 14 1027.1 - 0.0 Showers Mostly clear 10 - - - -
21/07:00pm 17.8 SE 8 14 1026.3 - 0.0 - Mostly clear 10 - - - -
21/06:30pm 18.2 SE 10 17 1026.0 - 0.0 - Mostly clear 10 - - - -
21/06:00pm 18.9 SSE 10 17 1025.4 R 0.0 Distant precip. Partly cloudy 25 - - - -
21/05:30pm 19.1 ESE 11 17 1025.2 - 0.0 - Mostly clear 10 - - - -
21/05:00pm 19.6 SE 11 19 1024.6 - 0.0 - Mostly clear 10 - - - -
21/04:30pm 20.4 ESE 11 17 1024.4 - 0.0 - Mostly clear 10 - - - -
21/04:00pm 20.7 ESE 12 19 1024.1 - 0.0 - Partly cloudy 10 - - - -
21/03:30pm 21.2 ESE 13 21 1024.1 - 0.0 - Partly cloudy 10 - - - -
21/03:00pm 21.4 ESE 12 19 1024.1 R 0.0 Distant precip. Partly cloudy 25 - - - -
21/02:30pm 21.1 ESE 12 20 1023.8 - 0.0 - Partly cloudy 10 - - - -
21/02:00pm 21.8 ESE 12 20 1024.0 - 0.0 - Mostly clear 10 - - - -
21/01:30pm 21.7 ESE 12 19 1024.2 - 0.0 - - 10 - - - -
21/01:00pm 21.6 ESE 13 20 1024.5 - 0.0 - Mostly clear 10 - - - -
21/12:30pm 21.6 ESE 13 20 1024.8 - 0.0 - Mostly clear 10 - - - -
21/12:00pm 22.0 ESE 12 19 1025.4 R 0.0 Distant precip. Partly cloudy 30 - - - -
21/11:30am 21.8 E 11 16 1025.5 - 0.0 - Mostly clear 10 - - - -
21/11:00am 22.0 SE 12 18 1025.5 - 0.0 - Mostly clear 10 - - - -
21/10:30am 21.3 ESE 12 18 1025.7 - 0.0 - Partly cloudy 10 - - - -
21/10:00am 21.3 SE 11 17 1026.1 - 0.0 - Partly cloudy 10 - - - -
21/09:30am 21.1 SE 10 15 1026.3 - 0.0 - Mostly clear 10 - - - -
21/09:00am 20.3 SSE 8 13 1026.4 R 0.0 Fine Partly cloudy 30 - - - -
21/08:30am 18.1 S 7 9 1026.6 - 0.0 - Mostly clear 10 - - - -
21/08:00am 17.2 SSW 6 8 1026.4 - 0.0 - Mostly clear 10 - - - -
21/07:30am 16.2 SSW 8 11 1026.1 - 0.0 - Mostly clear 10 - - - -
21/07:00am 15.2 SSW 7 9 1025.9 - 0.0 - Mostly clear 10 - - - -
21/06:30am 13.5 SSW 9 11 1025.5 - 0.0 - Mostly clear 10 - - - -
21/06:00am 12.2 SSW 8 9 1025.1 R 0.0 Fine Partly cloudy 30 - - - -
21/05:30am 13.6 SSW 7 9 1024.7 - 0.0 - Mostly clear 10 - - - -
21/05:00am 12.9 SSW 7 9 1024.7 - 0.0 - Mostly clear 10 - - - -
21/04:30am 13.1 SSW 8 9 1024.5 - 0.0 - Mostly clear 10 - - - -
21/04:00am 13.0 SSW 7 9 1024.2 - 0.0 - Mostly clear 10 - - - -
21/03:30am 12.4 SSW 7 8 1024.0 - 0.0 - Mostly clear 10 - - - -
21/03:00am 13.0 SSW 6 7 1023.9 R 0.0 Fine Mostly clear 30 - - - -
21/02:30am 14.5 SSW 6 8 1024.3 - 0.0 - Mostly clear 10 - - - -
21/02:00am 14.9 S 7 8 1024.4 - 0.0 - Mostly clear 10 - - - -
21/01:30am 14.6 SSW 6 8 1024.5 - 0.0 - Mostly clear 10 - - - -
21/01:00am 15.4 S 5 6 1024.7 - 0.0 - Mostly clear 10 - - - -
21/12:30am 15.8 S 5 6 1024.8 - 0.0 - Mostly clear 10 - - - -
21/12:00am 16.4 S 6 9 1024.6 R 0.0 Fine Mostly clear 30 - - - -
 
Date/Time
EST
Temp

°C
Wind Pressure Rain
since 9am
mm
Weather Cloud Vis
km
Sea
Height
m
Swell
Dir
 
Speed
knots
Gust
knots
hPa Trend Height
m
Period
s
Dir
20/11:30pm 17.7 ESE 8 13 1024.4 - 0.0 - Mostly clear 10 - - - -
20/11:00pm 18.7 ESE 9 14 1024.4 - 0.0 - Mostly clear 10 - - - -
20/10:30pm 18.8 ESE 8 14 1024.4 - 0.0 - Mostly clear 10 - - - -
20/10:00pm 18.8 ESE 8 14 1024.5 - 0.0 - Partly cloudy 10 - - - -
20/09:30pm 18.8 ESE 9 15 1024.5 - 0.0 - Mostly clear 10 - - - -
20/09:00pm 18.4 ESE 9 14 1024.2 R 0.0 Fine Partly cloudy 30 - - - -
20/08:30pm 18.8 SE 8 14 1023.9 - 0.0 - Partly cloudy 10 - - - -
20/08:00pm 18.9 ESE 10 16 1023.3 - 0.0 - Mostly clear 10 - - - -
20/07:30pm 19.3 E 7 12 1023.0 - 0.0 - Partly cloudy 10 - - - -
20/07:00pm 19.1 ESE 9 14 1022.5 - 0.0 - Mostly clear 10 - - - -
20/06:30pm 19.2 ESE 8 13 1022.0 - 0.0 - Mostly clear 10 - - - -
20/06:00pm 19.1 ESE 10 15 1021.3 R 0.0 Fine Partly cloudy 25 - - - -
20/05:30pm 19.4 ESE 9 16 1020.9 - 0.0 - Partly cloudy 10 - - - -
20/05:00pm 19.5 ESE 11 17 1020.2 - 0.0 - Mostly clear 10 - - - -
20/04:30pm 19.7 ESE 9 16 1019.7 - 0.0 - Mostly clear 10 - - - -
20/04:00pm 20.3 E 10 17 1019.6 - 0.0 - Mostly clear 10 - - - -
20/03:30pm 20.1 E 9 15 1019.3 - 0.0 - Mostly clear 10 - - - -
20/03:00pm 20.6 ESE 10 17 1018.9 R 0.0 Showers Partly cloudy 30 - - - -
20/02:30pm 20.2 E 11 18 1019.0 - 0.0 Showers Mostly clear 10 - - - -
20/02:00pm 20.7 ESE 12 18 1019.0 - 0.0 - Mostly clear 10 - - - -
20/01:30pm 21.3 ESE 12 19 1019.1 - 0.0 - Mostly clear 10 - - - -
20/01:00pm 20.2 ESE 12 20 1019.3 - 0.0 - Mostly clear 10 - - - -
20/12:30pm 20.3 ESE 11 17 1020.0 - 0.0 Showers Mostly clear 10 - - - -
20/12:00pm 19.8 E 11 18 1020.3 R 0.0 Distant precip. Mostly cloudy 30 - - - -
20/11:30am 20.0 ESE 12 20 1020.6 - 0.0 - Mostly clear 10 - - - -
20/11:00am 21.0 ESE 12 18 1020.9 - 0.0 - Mostly clear 10 - - - -
20/10:30am 20.9 E 11 16 1021.2 - 0.0 - Mostly clear 10 - - - -
20/10:00am 20.5 SE 8 14 1021.4 - 0.0 - Mostly clear 10 - - - -
20/09:30am 20.5 ESE 9 15 1021.7 - 0.0 - Partly cloudy 10 - - - -
20/09:00am 20.6 ESE 9 12 1021.8 R 0.0 Fine Partly cloudy 30 - - - -
20/08:30am 20.7 SE 6 8 1021.6 - 0.0 - Mostly clear 10 - - - -
20/08:00am 19.5 S 7 9 1021.4 - 0.0 - Mostly clear 10 - - - -
20/07:30am 18.5 S 7 9 1021.0 - 0.0 - - 10 - - - -
20/07:00am 16.3 SSW 7 8 1020.6 - 0.0 - - 10 - - - -
20/06:30am 15.7 SSW 6 8 1020.1 - 0.0 - - 10 - - - -
20/06:00am 15.1 S 7 9 1019.8 R 0.0 Distant precip. Mostly cloudy 30 - - - -
20/05:30am 14.1 SSW 7 9 1019.4 - 0.0 - - 10 - - - -
20/05:00am 14.2 SSW 7 8 1018.9 - 0.0 - - 10 - - - -
20/04:30am 13.1 SSW 5 6 1018.5 - 0.0 - Mostly clear 10 - - - -
20/04:00am 13.2 WSW 4 5 1018.2 - 0.0 - Mostly clear 10 - - - -
20/03:30am 13.1 SW 4 4 1018.2 - 0.0 - Mostly clear 10 - - - -
20/03:00am 13.9 SSW 5 5 1018.1 F 0.0 Lightning Partly cloudy 30 - - - -
20/02:30am 14.6 SSW 5 6 1018.4 - 0.0 - Mostly clear 10 - - - -
20/02:00am 14.8 WSW 5 5 1018.6 - 0.0 - Mostly clear 10 - - - -
20/01:30am 15.5 WNW 4 7 1018.7 - 0.0 - Mostly clear 10 - - - -
20/01:00am 15.6 WNW 2 4 1018.7 - 0.0 - Mostly clear 10 - - - -
20/12:30am 16.2 NW 5 5 1018.9 - 0.0 - Mostly clear 10 - - - -
20/12:00am 16.5 NW 5 6 1019.2 R 0.0 Distant precip. Partly cloudy 30 - - - -
 
Date/Time
EST
Temp

°C
Wind Pressure Rain
since 9am
mm
Weather Cloud Vis
km
Sea
Height
m
Swell
Dir
 
Speed
knots
Gust
knots
hPa Trend Height
m
Period
s
Dir
19/11:30pm 17.0 WNW 3 5 1019.3 - 0.0 - Mostly clear 10 - - - -
19/11:00pm 17.5 NNW 6 9 1019.4 - 0.0 - Mostly clear 10 - - - -
19/10:30pm 18.4 N 9 13 1019.4 - 0.0 - Partly cloudy 10 - - - -
19/10:00pm 18.6 N 9 11 1019.5 - 0.0 - Mostly clear 10 - - - -
19/09:30pm 19.1 N 9 12 1019.5 - 0.0 - Mostly clear 10 - - - -
19/09:00pm 19.3 N 12 15 1019.3 F 0.0 Fine Mostly clear 30 - - - -
19/08:30pm 19.2 N 11 16 1019.4 - 0.0 - Mostly clear 10 - - - -
19/08:00pm 19.2 N 11 15 1019.1 - 0.0 - Mostly clear 10 - - - -
19/07:30pm 19.2 N 12 16 1018.9 - 0.0 - - 10 - - - -
19/07:00pm 19.4 N 12 16 1018.6 - 0.0 - - 10 - - - -
19/06:30pm 19.5 N 12 16 1018.2 - 0.0 - Mostly clear 10 - - - -
19/06:00pm 19.4 N 12 16 1017.7 R 0.0 Fine Mostly clear 30 - - - -
19/05:30pm 20.0 NNE 11 15 1017.1 - 0.0 - - 10 - - - -
19/05:00pm 20.7 NNE 13 17 1016.9 - 0.0 - - 10 - - - -
19/04:30pm 21.4 NE 13 16 1016.6 - 0.0 - Mostly clear 10 - - - -
19/04:00pm 21.7 NNE 13 16 1016.4 - 0.0 - Mostly clear 10 - - - -
19/03:30pm 22.3 NNE 13 17 1016.3 - 0.0 - Mostly clear 10 - - - -
19/03:00pm 22.3 NNE 13 17 1016.6 F 0.0 Haze Mostly clear 30 - - - -
19/02:30pm 22.2 NNE 14 17 1016.7 - 0.0 - Mostly clear 10 - - - -
19/02:00pm 22.5 NE 12 17 1016.9 - 0.0 - Mostly clear 10 - - - -
19/01:30pm 22.1 NE 13 17 1017.4 - 0.0 - Mostly clear 10 - - - -
19/01:00pm 22.5 NE 12 16 1018.0 - 0.0 - Mostly clear 10 - - - -
19/12:30pm 22.8 NNE 12 16 1018.6 - 0.0 - Mostly clear 10 - - - -
19/12:00pm 22.5 NNE 10 13 1019.1 F 0.0 Haze Mostly clear 25 - - - -
19/11:30am 22.8 N 9 12 1019.7 - 0.0 - Mostly clear 10 - - - -
19/11:00am 22.2 N 8 10 1020.3 - 0.0 - Mostly clear 10 - - - -
19/10:30am 22.5 N 8 15 1020.6 - 0.0 - Mostly clear 10 - - - -
19/10:00am 21.7 N 7 10 1021.0 - 0.0 - Mostly clear 10 - - - -
19/09:30am 21.0 N 5 11 1021.3 - 0.0 - Mostly clear 10 - - - -
19/09:00am 20.7 SSW 5 7 1021.4 F 0.0 Haze Mostly clear 30 - - - -
19/08:30am 18.9 S 4 6 1021.5 - 0.0 - Mostly clear 10 - - - -
19/08:00am 17.6 S 5 8 1021.4 - 0.0 - - 10 - - - -
19/07:30am 15.5 SSW 7 10 1021.3 - 0.0 - - 10 - - - -
19/07:00am 13.9 SSW 7 9 1020.9 - 0.0 - - 10 - - - -
19/06:30am 12.0 SSW 7 8 1020.5 - 0.0 - - 10 - - - -
19/06:00am 10.9 SSW 6 8 1020.4 R 0.0 Haze Clear 25 - - - -
19/05:30am 10.3 SSW 7 9 1020.2 - 0.0 - - 10 - - - -
19/05:00am 11.0 SSW 7 7 1019.9 - 0.0 - - 10 - - - -
19/04:30am 10.6 SSW 8 10 1019.5 - 0.0 - - 10 - - - -
19/04:00am 11.9 SSW 4 5 1019.0 - 0.0 - - 10 - - - -
19/03:30am 11.2 S 4 5 1019.0 - 0.0 - - 10 - - - -
19/03:00am 11.9 S 4 5 1019.1 R 0.0 Fine Clear 25 - - - -
19/02:30am 11.8 S 5 6 1019.0 - 0.0 - - 10 - - - -

Other Formats:

Comma delimited format used in spreadsheet applications
http://www.bom.gov.au/fwo/IDQ60701/IDQ60701.94578.axf

JavaScript Object Notation format (JSON) in row-major order
http://www.bom.gov.au/fwo/IDQ60701/IDQ60701.94578.json